createdAt,value
2024-03-16T00:00:11.620Z,51.04
2024-03-16T00:02:40.183Z,50.94
2024-03-16T00:05:08.514Z,50.95
2024-03-16T00:07:36.663Z,51.16
2024-03-16T00:10:07.819Z,51.28
2024-03-16T00:12:36.432Z,50.97
2024-03-16T00:15:04.786Z,50.95
2024-03-16T00:17:33.158Z,50.83
2024-03-16T00:20:01.193Z,50.83
2024-03-16T00:22:29.319Z,50.94
2024-03-16T00:24:57.366Z,50.69
2024-03-16T00:27:25.762Z,50.57
2024-03-16T00:29:53.891Z,50.68
2024-03-16T00:32:24.000Z,50.75
2024-03-16T00:34:52.086Z,50.87
2024-03-16T00:37:20.132Z,50.57
2024-03-16T00:39:48.233Z,50.80
2024-03-16T00:42:16.428Z,50.51
2024-03-16T00:44:47.418Z,50.61
2024-03-16T00:47:15.611Z,50.77
2024-03-16T00:49:43.648Z,50.42
2024-03-16T00:52:11.778Z,50.47
2024-03-16T00:54:40.384Z,50.40
2024-03-16T00:57:08.453Z,50.67
2024-03-16T00:59:36.520Z,50.49
2024-03-16T01:02:05.948Z,50.48
2024-03-16T01:04:37.983Z,50.53
2024-03-16T01:07:06.237Z,50.58
2024-03-16T01:09:34.781Z,50.63
2024-03-16T01:12:05.966Z,50.58
2024-03-16T01:14:34.031Z,50.38
2024-03-16T01:17:02.071Z,50.46
2024-03-16T01:19:32.712Z,50.69
2024-03-16T01:22:00.816Z,50.58
2024-03-16T01:24:28.887Z,50.58
2024-03-16T01:26:56.899Z,50.64
2024-03-16T01:29:24.871Z,50.55
2024-03-16T01:31:55.059Z,50.60
2024-03-16T01:34:23.164Z,50.42
2024-03-16T01:36:50.262Z,50.35
2024-03-16T01:39:18.379Z,50.47
2024-03-16T01:41:46.441Z,50.45
2024-03-16T01:44:14.663Z,50.48
2024-03-16T01:46:43.075Z,50.25
2024-03-16T01:49:11.312Z,50.31
2024-03-16T01:51:39.516Z,50.43
2024-03-16T01:54:07.593Z,50.36
2024-03-16T01:56:38.345Z,50.37
2024-03-16T01:59:06.433Z,50.49
2024-03-16T02:01:34.564Z,50.42
2024-03-16T02:04:04.779Z,50.33
2024-03-16T02:06:32.934Z,50.16
2024-03-16T02:09:01.597Z,50.37
2024-03-16T02:11:29.653Z,50.15
2024-03-16T02:13:57.862Z,50.26
2024-03-16T02:16:25.910Z,50.26
2024-03-16T02:18:53.984Z,50.22
2024-03-16T02:21:22.053Z,50.29
2024-03-16T02:23:50.112Z,50.20
2024-03-16T02:26:18.248Z,50.10
2024-03-16T02:28:46.281Z,50.23
2024-03-16T02:31:15.162Z,50.30
2024-03-16T02:33:46.507Z,50.25
2024-03-16T02:36:15.114Z,50.21
2024-03-16T02:38:46.657Z,50.12
2024-03-16T02:41:14.681Z,50.01
2024-03-16T02:43:42.710Z,50.25
2024-03-16T02:46:12.842Z,50.18
2024-03-16T02:48:40.931Z,50.15
2024-03-16T02:51:08.927Z,49.98
2024-03-16T02:53:36.996Z,50.28
2024-03-16T02:56:05.590Z,50.16
2024-03-16T02:58:33.634Z,50.04
2024-03-16T03:01:01.822Z,50.08
2024-03-16T03:03:30.565Z,50.27
2024-03-16T03:05:58.587Z,50.10
2024-03-16T03:08:26.631Z,50.11
2024-03-16T03:10:54.780Z,50.13
2024-03-16T03:13:25.828Z,50.23
2024-03-16T03:15:53.938Z,50.07
2024-03-16T03:18:25.501Z,49.87
2024-03-16T03:20:56.168Z,49.95
2024-03-16T03:23:24.208Z,50.08
2024-03-16T03:25:52.606Z,49.92
2024-03-16T03:28:19.713Z,49.71
2024-03-16T03:30:50.197Z,49.71
2024-03-16T03:33:18.615Z,49.72
2024-03-16T03:35:46.672Z,49.53
2024-03-16T03:38:14.692Z,49.61
2024-03-16T03:40:42.905Z,49.80
2024-03-16T03:43:18.584Z,49.81
2024-03-16T03:45:51.960Z,49.83
2024-03-16T03:48:42.920Z,49.51
2024-03-16T03:51:11.274Z,49.61
2024-03-16T03:53:41.079Z,49.75
2024-03-16T03:56:09.120Z,49.47
2024-03-16T03:58:39.691Z,49.66
2024-03-16T04:01:08.646Z,49.67
2024-03-16T04:03:37.038Z,49.91
2024-03-16T04:06:05.448Z,49.82
2024-03-16T04:08:36.263Z,49.93
2024-03-16T04:11:07.018Z,49.89
2024-03-16T04:13:35.333Z,50.08
2024-03-16T04:16:03.816Z,49.93
2024-03-16T04:18:32.019Z,49.95
2024-03-16T04:21:00.250Z,49.94
2024-03-16T04:23:28.646Z,49.66
2024-03-16T04:25:59.544Z,49.85
2024-03-16T04:28:27.585Z,49.80
2024-03-16T04:30:55.758Z,50.76
2024-03-16T04:33:23.816Z,50.73
2024-03-16T04:35:51.926Z,50.58
2024-03-16T04:38:20.006Z,50.45
2024-03-16T04:40:48.066Z,50.47
2024-03-16T04:43:16.611Z,50.24
2024-03-16T04:45:48.902Z,50.23
2024-03-16T04:48:17.228Z,49.83
2024-03-16T04:50:46.928Z,49.92
2024-03-16T04:53:16.669Z,49.88
2024-03-16T04:55:44.781Z,50.00
2024-03-16T04:58:13.019Z,50.56
2024-03-16T05:00:41.148Z,50.59
2024-03-16T05:03:10.952Z,50.53
2024-03-16T05:05:39.020Z,50.62
2024-03-16T05:08:08.291Z,50.73
2024-03-16T05:10:36.400Z,50.79
2024-03-16T05:13:04.626Z,50.63
2024-03-16T05:15:35.894Z,50.75
2024-03-16T05:18:06.929Z,50.76
2024-03-16T05:20:34.979Z,50.60
2024-03-16T05:23:03.878Z,50.55
2024-03-16T05:25:31.968Z,50.51
2024-03-16T05:28:00.103Z,50.49
2024-03-16T05:30:28.328Z,50.53
2024-03-16T05:32:56.470Z,50.30
2024-03-16T05:35:27.555Z,49.86
2024-03-16T05:37:58.364Z,49.76
2024-03-16T05:40:26.476Z,49.64
2024-03-16T05:42:54.592Z,49.48
2024-03-16T05:45:22.664Z,49.24
2024-03-16T05:47:53.665Z,49.20
2024-03-16T05:50:22.424Z,49.00
2024-03-16T05:52:50.466Z,49.16
2024-03-16T05:55:18.560Z,49.01
2024-03-16T05:57:46.635Z,48.82
2024-03-16T06:00:15.883Z,48.80
2024-03-16T06:02:43.943Z,48.81
2024-03-16T06:05:12.052Z,48.99
2024-03-16T06:07:40.446Z,48.59
2024-03-16T06:10:10.783Z,48.62
2024-03-16T06:12:39.051Z,48.56
2024-03-16T06:15:08.075Z,48.28
2024-03-16T06:17:38.861Z,48.46
2024-03-16T06:20:08.022Z,48.36
2024-03-16T06:22:36.197Z,48.17
2024-03-16T06:25:04.429Z,48.00
2024-03-16T06:27:32.450Z,47.92
2024-03-16T06:30:00.455Z,47.90
2024-03-16T06:32:29.729Z,47.80
2024-03-16T06:34:58.239Z,47.82
2024-03-16T06:37:26.258Z,47.73
2024-03-16T06:39:54.616Z,47.66
2024-03-16T06:42:22.703Z,47.47
2024-03-16T06:44:50.816Z,47.45
2024-03-16T06:47:21.418Z,47.36
2024-03-16T06:49:51.110Z,47.44
2024-03-16T06:52:25.522Z,47.15
2024-03-16T06:54:53.758Z,47.09
2024-03-16T06:57:22.126Z,47.06
2024-03-16T06:59:50.121Z,47.09
2024-03-16T07:02:18.244Z,46.93
2024-03-16T07:04:46.262Z,46.85
2024-03-16T07:07:14.358Z,46.83
2024-03-16T07:09:42.789Z,46.90
2024-03-16T07:12:10.984Z,46.68
2024-03-16T07:14:40.282Z,46.76
2024-03-16T07:17:08.281Z,46.58
2024-03-16T07:19:38.883Z,46.47
2024-03-16T07:22:07.085Z,46.34
2024-03-16T07:24:35.736Z,46.43
2024-03-16T07:27:03.740Z,46.50
2024-03-16T07:29:31.802Z,46.33
2024-03-16T07:31:59.802Z,46.34
2024-03-16T07:34:30.508Z,46.31
2024-03-16T07:37:00.167Z,46.16
2024-03-16T07:39:28.438Z,46.06
2024-03-16T07:41:56.674Z,46.08
2024-03-16T07:44:24.742Z,46.05
2024-03-16T07:46:52.833Z,45.97
2024-03-16T07:49:21.864Z,46.00
2024-03-16T07:51:49.999Z,46.00
2024-03-16T07:54:18.003Z,45.93
2024-03-16T07:56:48.479Z,45.76
2024-03-16T07:59:17.721Z,45.65
2024-03-16T08:01:45.905Z,45.51
2024-03-16T08:04:13.944Z,45.58
2024-03-16T08:06:42.671Z,45.54
2024-03-16T08:09:12.964Z,45.42
2024-03-16T08:11:43.854Z,45.57
2024-03-16T08:14:12.483Z,45.65
2024-03-16T08:16:43.246Z,45.39
2024-03-16T08:19:11.348Z,45.42
2024-03-16T08:21:39.557Z,45.42
2024-03-16T08:24:08.038Z,45.26
2024-03-16T08:26:38.888Z,45.13
2024-03-16T08:29:09.499Z,45.17
2024-03-16T08:31:37.536Z,45.17
2024-03-16T08:34:05.776Z,45.18
2024-03-16T08:36:33.904Z,45.07
2024-03-16T08:39:04.389Z,44.83
2024-03-16T08:41:32.462Z,44.83
2024-03-16T08:44:00.513Z,44.68
2024-03-16T08:46:28.563Z,44.87
2024-03-16T08:48:56.881Z,44.84
2024-03-16T08:51:25.736Z,44.72
2024-03-16T08:53:54.188Z,44.70
2024-03-16T08:56:22.350Z,44.73
2024-03-16T08:58:50.717Z,44.68
2024-03-16T09:01:19.066Z,44.55
2024-03-16T09:03:47.226Z,44.43
2024-03-16T09:06:15.904Z,44.59
2024-03-16T09:08:46.503Z,44.93
2024-03-16T09:11:14.537Z,44.84
2024-03-16T09:13:42.587Z,45.07
2024-03-16T09:16:11.005Z,45.19
2024-03-16T09:18:39.808Z,44.76
2024-03-16T09:21:10.749Z,44.84
2024-03-16T09:23:38.805Z,44.64
2024-03-16T09:26:07.372Z,44.55
2024-03-16T09:28:37.452Z,44.64
2024-03-16T09:31:06.803Z,44.63
2024-03-16T09:33:35.182Z,44.67
2024-03-16T09:36:03.393Z,44.59
2024-03-16T09:38:31.780Z,44.77
2024-03-16T09:41:00.301Z,45.55
